Aviation Digital Data Service (ADDS)

Output produced by TAFs form (2029 UTC 20 July 2017)
found at http://www.aviationweather.gov/adds/tafs/
 
Forecast for: ROIG (ISHIGAKIJIMA ISL, JP)
Text: TAF ROIG 201709Z 2018/2200 17003KT 9999 FEW020
Forecast period: 1800 to 2200 UTC 20 July 2017
Forecast type: FROM: standard forecast or significant change
Winds: from the S (170 degrees) at 3 MPH (3 knots; 1.6 m/s)
Visibility: 6 or more miles (10+ km)
Clouds: few clouds at 2000 feet AGL
Weather: no significant weather forecast for this period
Text: BECMG 2022/2100 12008KT
Forecast period: 2200 UTC 20 July 2017 to 0000 UTC 22 July 2017
Forecast type: BECOMING: Conditions expected to become as follows by 0000 UTC 21 July 2017
Winds: from the ESE (120 degrees) at 9 MPH (8 knots; 4.2 m/s)
Visibility: 6 or more miles (10+ km)
Clouds: few clouds at 2000 feet AGL
Weather: no significant weather forecast for this period